Danville, CA

2:08 PM PDT on July 03, 2015 (GMT -0700)
Diablo Highlands Country Estates | | Change Station
CLOSE
Current Station
Personal Weather Station
Location: Danville, CA
Elevation: 541 ft
Nearby Weather Stations

Elev 541 ft 37.82 °N, 121.97 °W | Updated 3 minutes ago

Clear
Clear
91.4 °F
Feels Like 90 °F
N
1.1
Wind Variable Wind from SSE
Gusts 2.7 mph

Today
High -- | Low -- °F
--% Chance of Precip.
Yesterday
High -- | Low -- °F
Precip. -- in
5:50 AM 8:33 PM
Waning Gibbous, 96% visible
Pressure 29.86 in
Visibility 10.0 miles
Clouds Clear
Heat Index 90 °F
Dew Point 56 °F
Humidity 30%
Rainfall 0.00 in
Snow Depth Not available.
UV 12 out of 12
Pollen 4.00 out of 12
Air Quality Not available.
Flu Activity Not available.
METAR KLVK 032053Z 31008G14KT 10SM CLR 33/13 A2988 RMK AO2 SLP112 T03330133 58016

More Conditions Fewer Conditions

Pressure 29.86 in
Visibility 10.0 miles
Clouds Clear
Heat Index 90 °F
Dew Point 56 °F
Humidity 30%
Rainfall 0.00 in
Snow Depth Not available.
UV 12 out of 12
Pollen 4.00 out of 12
Air Quality Not available.
Flu Activity Not available.
METAR KLVK 032053Z 31008G14KT 10SM CLR 33/13 A2988 RMK AO2 SLP112 T03330133 58016

More Conditions Fewer Conditions

10-Day Weather Forecast

×

Almanac

Astronomy

Jul. 03, 2015 Rise Set
Actual Time
Civil Twilight
Nautical Twilight
Astronomical Twilight
Moon
Length of Visible Light
Length of Day
Tomorrow will be .
, % of the Moon is Illuminated

Today's Extremes

State Highs State Lows

Community

WunderPhotos

Upload Photos

1,834,774 photos uploaded!

WunderBlogs® & News

Nearby

Air Quality

  Air Quality AQ Index Pollutant
Not available.

Snow Depth

Station Depth Elevation

Earthquake Activity

City Distance Mag. Time & Date
Minimum magnitude displayed is 2.5.

Coastal Water Temperatures

Place Temperature

Stations

Nearby Weather Stations

Station Location Temp. Windchill Dew Point Humidity Wind Precip. Elev Updated Type